Terminal Aerodrome Forecast
Issued by NWS

Home | Current Version | Previous Version | Text Only | Print | Product List | Glossary On
Versions: 1 2 3 4 5 6 7 8 9 10 11 12
000
FTUS44 KSJT 030500
TAFJCT
TAF
KJCT 030520Z 0306/0406 17006KT P6SM FEW250
     FM031000 17009KT P6SM BKN018
     FM031500 17011KT P6SM SCT070=

USA.gov is the U.S. government's official web portal to all federal, state and local government web resources and services.